Time;durP1;ratioP1;P1;durP2;ratioP2;P2;SDS_P1;SDS_P2;PMS_P1;PMS_P2;Temp;Humidity;BMP_temperature;BMP_pressure;BME280_temperature;BME280_humidity;BME280_pressure;Samples;Min_cycle;Max_cycle;Signal;HPM_P1;HPM_P2
2021/11/27 00:01:42;;;;;;;5.07;2.00;;;;;;;0.40;100.00;94775.78;5047511;28;20489;-70
2021/11/27 00:04:10;;;;;;;6.57;2.53;;;;;;;0.45;100.00;94780.69;5048632;28;20394;-71
2021/11/27 00:06:39;;;;;;;4.10;1.92;;;;;;;0.48;100.00;94774.59;5051434;28;20170;-71
2021/11/27 00:09:07;;;;;;;5.15;1.67;;;;;;;0.50;100.00;94772.81;5048324;28;20481;-70
2021/11/27 00:11:34;;;;;;;5.70;1.70;;;;;;;0.49;100.00;94786.47;5045453;28;20076;-70
2021/11/27 00:14:02;;;;;;;4.07;2.05;;;;;;;0.54;100.00;94769.22;5053077;28;20045;-71
2021/11/27 00:16:30;;;;;;;4.88;1.67;;;;;;;0.56;100.00;94780.16;5048417;28;20068;-71
2021/11/27 00:18:57;;;;;;;4.95;1.50;;;;;;;0.50;100.00;94785.56;5048572;28;20128;-70
2021/11/27 00:21:25;;;;;;;3.28;1.38;;;;;;;0.50;100.00;94767.69;5045158;28;20046;-71
2021/11/27 00:23:53;;;;;;;3.97;1.65;;;;;;;0.52;100.00;94768.44;5047702;28;20045;-70
2021/11/27 00:26:22;;;;;;;7.75;3.47;;;;;;;0.44;100.00;94766.28;5062814;28;20128;-71
2021/11/27 00:28:50;;;;;;;5.15;2.53;;;;;;;0.44;100.00;94760.34;5049153;28;20314;-71
2021/11/27 00:31:23;;;;;;;5.75;1.80;;;;;;;0.44;100.00;94745.88;5047485;28;20386;-70
2021/11/27 00:33:51;;;;;;;4.82;1.83;;;;;;;0.46;100.00;94776.41;5045845;28;20064;-70
2021/11/27 00:36:19;;;;;;;2.65;1.20;;;;;;;0.50;100.00;94750.69;5050350;28;20469;-71
2021/11/27 00:38:47;;;;;;;3.15;1.25;;;;;;;0.51;100.00;94765.09;5050182;28;20614;-71
2021/11/27 00:41:15;;;;;;;3.55;1.77;;;;;;;0.51;100.00;94754.06;5047620;28;20080;-70
2021/11/27 00:43:44;;;;;;;3.53;1.55;;;;;;;0.48;100.00;94752.47;5046002;28;20084;-71
2021/11/27 00:46:13;;;;;;;3.97;1.67;;;;;;;0.44;100.00;94765.47;5054779;28;20044;-69
2021/11/27 00:48:41;;;;;;;3.95;2.03;;;;;;;0.51;100.00;94759.16;5046911;28;20080;-70
2021/11/27 00:51:12;;;;;;;4.65;1.95;;;;;;;0.44;100.00;94768.84;5046084;28;20055;-70
2021/11/27 00:53:39;;;;;;;2.83;1.17;;;;;;;0.48;100.00;94764.38;5048039;28;20080;-70
2021/11/27 00:56:08;;;;;;;4.45;1.90;;;;;;;0.48;100.00;94728.66;5050196;28;20098;-70
2021/11/27 00:58:35;;;;;;;6.30;2.03;;;;;;;0.49;100.00;94741.34;5047262;28;20111;-70
2021/11/27 01:01:07;;;;;;;4.63;2.08;;;;;;;0.53;100.00;94730.09;5046580;28;20045;-70
2021/11/27 01:03:36;;;;;;;3.13;1.40;;;;;;;0.54;100.00;94724.09;5054749;28;20106;-71
2021/11/27 01:06:06;;;;;;;9.18;3.75;;;;;;;0.58;100.00;94724.78;5057105;28;20076;-70
2021/11/27 01:08:35;;;;;;;4.50;2.10;;;;;;;0.63;100.00;94736.41;5052326;28;20421;-69
2021/11/27 01:11:16;;;;;;;6.40;2.53;;;;;;;0.64;100.00;94719.38;5030575;28;20057;-70
2021/11/27 01:13:46;;;;;;;3.70;2.30;;;;;;;0.63;100.00;94717.72;5035542;28;20079;-70
2021/11/27 01:16:17;;;;;;;5.53;1.95;;;;;;;0.70;100.00;94708.84;5044334;28;20049;-71
2021/11/27 01:18:46;;;;;;;4.25;2.20;;;;;;;0.74;100.00;94702.69;5040247;28;20051;-70
2021/11/27 01:21:18;;;;;;;4.45;2.03;;;;;;;0.72;100.00;94714.69;5057260;28;20048;-70
2021/11/27 01:23:49;;;;;;;3.72;1.70;;;;;;;0.75;100.00;94717.13;5032749;28;20390;-71
2021/11/27 01:26:17;;;;;;;5.22;2.90;;;;;;;0.78;100.00;94711.03;5046075;28;20500;-71
2021/11/27 01:28:45;;;;;;;4.68;2.20;;;;;;;0.75;100.00;94714.56;5048848;28;20527;-70
2021/11/27 01:31:13;;;;;;;4.72;1.92;;;;;;;0.76;100.00;94707.72;5034364;28;20045;-71
2021/11/27 01:33:40;;;;;;;4.38;2.20;;;;;;;0.80;100.00;94710.03;5044561;28;20045;-71
2021/11/27 01:36:07;;;;;;;3.08;1.98;;;;;;;0.86;100.00;94695.31;5030147;28;20050;-71
2021/11/27 01:38:35;;;;;;;2.63;1.65;;;;;;;0.85;100.00;94693.69;5035662;28;20049;-71
2021/11/27 01:41:04;;;;;;;4.63;2.13;;;;;;;0.77;100.00;94699.97;5048597;28;20135;-70
2021/11/27 01:43:33;;;;;;;5.20;2.70;;;;;;;0.81;100.00;94693.00;5047891;28;20095;-71
2021/11/27 01:46:02;;;;;;;4.53;2.15;;;;;;;0.82;100.00;94692.94;5044203;28;20524;-71
2021/11/27 01:48:30;;;;;;;4.97;2.45;;;;;;;0.82;100.00;94674.19;5042328;28;20124;-71
2021/11/27 01:51:01;;;;;;;6.07;2.33;;;;;;;0.86;100.00;94682.53;5038511;28;20057;-70
2021/11/27 01:53:32;;;;;;;4.07;1.83;;;;;;;0.87;100.00;94682.47;5039456;28;20207;-70
2021/11/27 01:56:03;;;;;;;3.58;1.90;;;;;;;0.85;100.00;94676.63;5042312;28;20045;-70
2021/11/27 01:58:32;;;;;;;3.17;1.98;;;;;;;0.82;100.00;94687.81;5047420;28;20068;-70
2021/11/27 02:01:06;;;;;;;3.10;1.77;;;;;;;0.85;100.00;94686.84;5048567;28;20053;-71
2021/11/27 02:03:35;;;;;;;3.03;1.70;;;;;;;0.89;100.00;94682.38;5042305;28;20195;-71
2021/11/27 02:06:05;;;;;;;4.05;1.92;;;;;;;0.85;100.00;94674.06;5045855;28;20088;-71
2021/11/27 02:08:33;;;;;;;4.43;2.10;;;;;;;0.82;100.00;94674.19;5038589;28;20123;-70
2021/11/27 02:11:01;;;;;;;2.95;1.50;;;;;;;0.83;100.00;94674.13;5045628;28;20049;-70
2021/11/27 02:13:30;;;;;;;4.65;1.75;;;;;;;0.81;100.00;94670.84;5041749;28;20068;-69
2021/11/27 02:15:58;;;;;;;2.33;1.20;;;;;;;0.83;100.00;94673.31;5050224;28;20337;-70
2021/11/27 02:18:25;;;;;;;2.95;1.33;;;;;;;0.83;100.00;94658.81;5047158;28;20494;-70
2021/11/27 02:21:05;;;;;;;3.38;1.90;;;;;;;0.79;100.00;94661.59;5047526;28;20052;-71
2021/11/27 02:23:34;;;;;;;4.18;1.70;;;;;;;0.78;100.00;94680.41;5045086;28;20049;-71
2021/11/27 02:26:05;;;;;;;3.38;1.50;;;;;;;0.73;100.00;94685.72;5038198;28;20488;-70
2021/11/27 02:28:35;;;;;;;3.60;1.30;;;;;;;0.77;100.00;94666.78;5044528;28;20124;-70
2021/11/27 02:31:03;;;;;;;2.72;1.25;;;;;;;0.75;100.00;94658.41;5061657;28;20045;-70
2021/11/27 02:33:32;;;;;;;3.70;1.30;;;;;;;0.76;100.00;94657.47;5042337;28;20049;-70
2021/11/27 02:36:00;;;;;;;2.67;1.27;;;;;;;0.79;100.00;94677.75;5052408;28;20056;-70
2021/11/27 02:38:28;;;;;;;3.22;1.48;;;;;;;0.79;100.00;94664.97;5054666;28;20041;-71
2021/11/27 02:40:55;;;;;;;2.55;1.35;;;;;;;0.77;100.00;94674.44;5064424;28;20044;-70
2021/11/27 02:43:23;;;;;;;2.85;1.35;;;;;;;0.74;100.00;94673.78;5055950;28;20457;-71
2021/11/27 02:45:50;;;;;;;2.50;1.40;;;;;;;0.74;100.00;94676.34;5039639;28;20060;-70
2021/11/27 02:48:18;;;;;;;2.80;1.20;;;;;;;0.71;100.00;94671.38;5042004;28;20060;-71
2021/11/27 02:50:46;;;;;;;3.65;1.98;;;;;;;0.71;100.00;94667.09;5045822;28;20462;-71
2021/11/27 02:53:15;;;;;;;2.90;1.40;;;;;;;0.76;100.00;94679.63;5050246;28;20049;-71
2021/11/27 02:55:44;;;;;;;3.22;1.73;;;;;;;0.75;100.00;94666.06;5038971;28;20041;-71
2021/11/27 02:58:11;;;;;;;3.38;1.95;;;;;;;0.77;100.00;94658.31;5034861;28;20096;-71
2021/11/27 03:00:40;;;;;;;5.72;2.22;;;;;;;0.79;100.00;94659.88;5050944;28;20084;-70
2021/11/27 03:03:07;;;;;;;3.28;1.77;;;;;;;0.74;100.00;94659.28;5042810;28;20092;-71
2021/11/27 03:05:35;;;;;;;3.03;1.65;;;;;;;0.79;100.00;94674.38;5049136;28;20080;-70
2021/11/27 03:08:03;;;;;;;3.80;1.60;;;;;;;0.74;100.00;94666.94;5036959;28;20227;-71
2021/11/27 03:10:30;;;;;;;6.07;1.60;;;;;;;0.81;100.00;94657.25;5058148;28;20460;-70
2021/11/27 03:12:58;;;;;;;2.60;1.50;;;;;;;0.80;100.00;94669.19;5050211;28;20044;-71
2021/11/27 03:15:25;;;;;;;3.90;1.42;;;;;;;0.80;100.00;94678.59;5043456;28;20137;-70
2021/11/27 03:17:53;;;;;;;3.58;1.40;;;;;;;0.84;100.00;94654.53;5048575;28;20098;-70
2021/11/27 03:20:20;;;;;;;2.70;1.30;;;;;;;0.88;100.00;94655.22;5047781;28;20053;-71
2021/11/27 03:22:48;;;;;;;4.15;1.50;;;;;;;0.88;100.00;94660.31;5043145;28;20069;-71
2021/11/27 03:25:16;;;;;;;2.78;1.45;;;;;;;0.88;100.00;94650.91;5051756;28;20442;-70
2021/11/27 03:27:43;;;;;;;2.28;1.13;;;;;;;0.78;100.00;94680.41;5046697;28;20493;-71
2021/11/27 03:30:15;;;;;;;1.48;1.02;;;;;;;0.82;100.00;94631.66;5048179;28;20049;-70
2021/11/27 03:32:42;;;;;;;4.22;1.90;;;;;;;0.83;100.00;94640.13;5046491;28;20049;-70
2021/11/27 03:35:11;;;;;;;3.22;1.73;;;;;;;0.86;100.00;94655.28;5045689;28;20538;-70
2021/11/27 03:37:39;;;;;;;4.35;2.35;;;;;;;0.79;100.00;94680.28;5050084;28;20501;-71
2021/11/27 03:40:10;;;;;;;5.82;2.95;;;;;;;0.77;100.00;94665.97;5038092;28;20168;-70
2021/11/27 03:42:37;;;;;;;4.15;2.22;;;;;;;0.79;100.00;94656.50;5050171;28;20437;-70
2021/11/27 03:45:07;;;;;;;3.78;1.52;;;;;;;0.79;100.00;94664.16;5063948;28;20098;-71
2021/11/27 03:47:35;;;;;;;4.57;2.17;;;;;;;0.73;100.00;94682.31;5056962;28;20045;-70
2021/11/27 03:50:03;;;;;;;3.42;1.70;;;;;;;0.79;100.00;94676.91;5052601;28;20068;-70
2021/11/27 03:52:30;;;;;;;5.57;2.08;;;;;;;0.82;100.00;94679.31;5042655;28;20088;-70
2021/11/27 03:54:58;;;;;;;5.95;2.58;;;;;;;0.85;100.00;94670.69;5042121;28;20133;-70
2021/11/27 03:57:25;;;;;;;4.00;1.95;;;;;;;0.86;100.00;94680.00;5049896;28;20128;-70
2021/11/27 03:59:52;;;;;;;3.38;2.22;;;;;;;0.80;100.00;94681.16;5046929;28;20057;-69
2021/11/27 04:02:20;;;;;;;3.50;2.28;;;;;;;0.84;100.00;94667.28;5041916;28;20041;-71
2021/11/27 04:04:47;;;;;;;3.20;1.63;;;;;;;0.83;100.00;94680.97;5042750;28;20073;-70
2021/11/27 04:07:15;;;;;;;4.32;2.22;;;;;;;0.81;100.00;94680.22;5049671;28;20080;-71
2021/11/27 04:09:42;;;;;;;4.47;2.38;;;;;;;0.86;100.00;94673.16;5042815;28;20128;-71
2021/11/27 04:12:10;;;;;;;2.92;1.67;;;;;;;0.85;100.00;94673.25;5048800;28;20040;-70
2021/11/27 04:14:37;;;;;;;5.40;2.17;;;;;;;0.89;100.00;94675.56;5054675;28;20128;-70
2021/11/27 04:17:05;;;;;;;3.22;1.55;;;;;;;0.85;100.00;94666.41;5046805;28;20366;-71
2021/11/27 04:19:32;;;;;;;7.45;2.80;;;;;;;0.74;100.00;94676.34;5039197;28;20119;-71
2021/11/27 04:22:00;;;;;;;3.72;1.92;;;;;;;0.79;100.00;94674.38;5034217;28;20152;-70
2021/11/27 04:24:28;;;;;;;4.72;1.70;;;;;;;0.82;100.00;94664.00;5038651;28;20057;-71
2021/11/27 04:26:55;;;;;;;4.43;1.73;;;;;;;0.78;100.00;94675.28;5031387;28;20076;-70
2021/11/27 04:29:22;;;;;;;2.63;1.33;;;;;;;0.77;100.00;94686.38;5030916;28;20390;-71
2021/11/27 04:31:50;;;;;;;3.17;1.17;;;;;;;0.80;100.00;94684.50;5041155;28;20500;-71
2021/11/27 04:34:17;;;;;;;3.80;1.42;;;;;;;0.76;100.00;94694.97;5031566;28;20126;-70
2021/11/27 04:36:45;;;;;;;2.45;1.52;;;;;;;0.57;100.00;94690.78;5035882;28;20133;-70
2021/11/27 04:39:12;;;;;;;2.47;1.23;;;;;;;0.62;100.00;94688.00;5038473;28;20056;-70
2021/11/27 04:41:40;;;;;;;3.17;1.73;;;;;;;0.65;100.00;94687.84;5034269;28;20060;-70
2021/11/27 04:44:07;;;;;;;2.13;1.35;;;;;;;0.65;100.00;94695.50;5052597;28;20056;-71
2021/11/27 04:46:35;;;;;;;2.88;1.10;;;;;;;0.58;100.00;94697.50;5045936;28;20505;-69
2021/11/27 04:49:02;;;;;;;3.13;1.73;;;;;;;0.55;100.00;94696.88;5066777;28;20056;-70
2021/11/27 04:51:30;;;;;;;4.45;1.98;;;;;;;0.45;100.00;94706.66;5063961;28;20098;-69
2021/11/27 04:53:57;;;;;;;6.78;2.60;;;;;;;0.48;100.00;94703.13;5041344;28;20505;-71
2021/11/27 04:56:25;;;;;;;4.10;1.67;;;;;;;0.53;100.00;94699.47;5051186;28;20063;-70
2021/11/27 04:58:52;;;;;;;5.28;2.55;;;;;;;0.55;100.00;94702.78;5033949;28;20144;-70
2021/11/27 05:01:22;;;;;;;4.30;2.47;;;;;;;0.57;100.00;94707.78;5045334;28;20064;-70
2021/11/27 05:03:50;;;;;;;5.07;2.30;;;;;;;0.56;100.00;94696.75;5037384;28;20045;-71
2021/11/27 05:06:17;;;;;;;4.85;3.40;;;;;;;0.64;100.00;94709.16;5044671;28;20469;-71
2021/11/27 05:08:45;;;;;;;5.22;3.30;;;;;;;0.62;100.00;94698.22;5057828;28;20139;-70
2021/11/27 05:11:15;;;;;;;3.97;2.38;;;;;;;0.70;100.00;94708.03;5042894;28;20131;-70
2021/11/27 05:13:42;;;;;;;5.13;2.65;;;;;;;0.74;100.00;94714.63;5043377;28;20072;-71
2021/11/27 05:16:09;;;;;;;5.90;3.42;;;;;;;0.79;100.00;94718.59;5041403;28;20497;-71
2021/11/27 05:18:37;;;;;;;4.32;2.30;;;;;;;0.82;100.00;94715.91;5036956;28;20084;-70
2021/11/27 05:21:05;;;;;;;5.22;3.00;;;;;;;0.74;100.00;94718.00;5038584;28;20148;-71
2021/11/27 05:23:33;;;;;;;6.40;3.63;;;;;;;0.75;100.00;94726.47;5043754;28;20207;-70
2021/11/27 05:26:00;;;;;;;5.68;3.42;;;;;;;0.84;100.00;94715.81;5034438;28;20482;-70
2021/11/27 05:28:28;;;;;;;6.47;3.35;;;;;;;0.78;100.00;94728.91;5048286;28;20751;-70
2021/11/27 05:30:56;;;;;;;5.93;3.22;;;;;;;0.80;100.00;94727.91;5059318;28;20045;-71
2021/11/27 05:33:45;;;;;;;2.97;1.95;;;;;;;0.88;100.00;94721.59;5048939;28;20045;-71
2021/11/27 05:36:12;;;;;;;4.32;2.83;;;;;;;0.81;100.00;94737.22;5034960;28;20049;-70
2021/11/27 05:38:40;;;;;;;4.88;3.05;;;;;;;0.80;100.00;94752.63;5048390;28;20045;-71
2021/11/27 05:41:08;;;;;;;5.15;2.88;;;;;;;0.79;100.00;94744.13;5042163;28;20081;-70
2021/11/27 05:43:35;;;;;;;5.40;3.65;;;;;;;0.78;100.00;94739.94;5044891;28;20066;-70
2021/11/27 05:46:03;;;;;;;8.05;4.40;;;;;;;0.76;100.00;94758.78;5053198;28;20045;-71
2021/11/27 05:48:30;;;;;;;4.70;3.17;;;;;;;0.91;100.00;94752.06;5051760;28;20152;-70
2021/11/27 05:50:57;;;;;;;6.20;3.53;;;;;;;0.81;100.00;94757.66;5058314;28;20091;-70
2021/11/27 05:53:25;;;;;;;5.65;3.25;;;;;;;0.74;100.00;94748.63;5055890;28;20118;-70
2021/11/27 05:55:53;;;;;;;6.68;3.90;;;;;;;0.78;100.00;94754.44;5052067;28;20179;-71
2021/11/27 05:58:22;;;;;;;4.75;3.03;;;;;;;0.74;100.00;94756.31;5058910;28;20044;-71
2021/11/27 06:00:50;;;;;;;7.07;4.78;;;;;;;0.76;100.00;94746.03;5049041;28;20151;-71
2021/11/27 06:03:17;;;;;;;6.90;4.47;;;;;;;0.81;100.00;94749.16;5050711;28;20111;-70
2021/11/27 06:05:45;;;;;;;8.02;3.80;;;;;;;0.78;100.00;94749.31;5048498;28;20067;-71
2021/11/27 06:08:12;;;;;;;5.20;3.45;;;;;;;0.81;100.00;94747.44;5048543;28;20429;-71
2021/11/27 06:10:39;;;;;;;5.30;2.90;;;;;;;0.85;100.00;94757.50;5041733;28;20077;-70
2021/11/27 06:13:07;;;;;;;5.53;3.17;;;;;;;0.81;100.00;94755.09;5042807;28;20442;-71
2021/11/27 06:15:34;;;;;;;5.47;3.28;;;;;;;0.85;100.00;94758.34;5049918;28;20045;-70
2021/11/27 06:18:02;;;;;;;5.85;2.78;;;;;;;0.89;100.00;94767.50;5046163;28;20077;-70
2021/11/27 06:20:29;;;;;;;6.63;3.42;;;;;;;0.86;100.00;94777.03;5045987;28;20460;-71
2021/11/27 06:22:57;;;;;;;6.70;3.28;;;;;;;0.89;100.00;94766.66;5042809;28;20056;-70
2021/11/27 06:25:25;;;;;;;8.05;4.03;;;;;;;0.90;100.00;94765.75;5045935;28;20077;-70
2021/11/27 06:27:53;;;;;;;4.50;2.88;;;;;;;0.87;100.00;94781.22;5041819;28;20135;-70
2021/11/27 06:30:21;;;;;;;5.63;3.60;;;;;;;0.80;100.00;94771.31;5039468;28;20118;-70
2021/11/27 06:32:48;;;;;;;8.85;4.78;;;;;;;0.91;100.00;94770.78;5039501;28;20046;-70
2021/11/27 06:35:16;;;;;;;7.03;4.47;;;;;;;0.85;100.00;94777.94;5037323;28;20049;-70
2021/11/27 06:37:44;;;;;;;7.97;3.50;;;;;;;0.88;100.00;94781.16;5055014;28;20049;-70
2021/11/27 06:40:12;;;;;;;5.00;3.53;;;;;;;0.83;100.00;94791.59;5041749;28;20144;-71
2021/11/27 06:42:40;;;;;;;6.65;4.05;;;;;;;0.86;100.00;94788.06;5039295;28;20136;-71
2021/11/27 06:45:07;;;;;;;5.82;4.03;;;;;;;0.86;100.00;94798.28;5050436;28;20084;-70
2021/11/27 06:47:34;;;;;;;5.88;3.88;;;;;;;0.85;100.00;94794.09;5046825;28;20230;-70
2021/11/27 06:50:02;;;;;;;6.93;4.15;;;;;;;0.90;100.00;94799.78;5042927;28;20329;-71
2021/11/27 06:52:30;;;;;;;5.30;3.40;;;;;;;0.89;100.00;94812.63;5046941;28;20110;-71
2021/11/27 06:54:57;;;;;;;5.45;2.80;;;;;;;0.91;100.00;94810.81;5037575;28;20287;-70
2021/11/27 06:57:24;;;;;;;6.57;4.15;;;;;;;0.92;100.00;94810.75;5050308;28;20342;-70
2021/11/27 06:59:52;;;;;;;5.47;3.33;;;;;;;0.91;100.00;94816.75;5048323;28;20052;-71
2021/11/27 07:02:19;;;;;;;7.47;4.78;;;;;;;0.89;100.00;94820.28;5048526;28;20141;-71
2021/11/27 07:04:47;;;;;;;6.07;3.97;;;;;;;0.96;100.00;94819.91;5049325;28;20079;-71
2021/11/27 07:07:14;;;;;;;6.07;3.95;;;;;;;0.89;100.00;94823.69;5054505;28;20076;-70
2021/11/27 07:09:42;;;;;;;6.40;4.10;;;;;;;0.90;100.00;94837.28;5041387;28;20107;-71
2021/11/27 07:12:09;;;;;;;6.75;3.78;;;;;;;0.93;100.00;94829.44;5037623;28;20055;-71
2021/11/27 07:14:36;;;;;;;7.60;4.97;;;;;;;0.89;100.00;94840.72;5049694;28;20446;-71
2021/11/27 07:17:04;;;;;;;6.25;3.42;;;;;;;0.98;100.00;94830.03;5046116;28;20430;-70
2021/11/27 07:19:32;;;;;;;5.50;3.15;;;;;;;0.91;100.00;94841.47;5049184;28;20127;-71
2021/11/27 07:22:01;;;;;;;6.35;3.58;;;;;;;0.86;100.00;94851.91;5048005;28;20073;-71
2021/11/27 07:24:28;;;;;;;7.20;3.35;;;;;;;0.89;100.00;94866.25;5053461;28;20124;-70
2021/11/27 07:26:56;;;;;;;9.13;5.82;;;;;;;0.86;100.00;94867.22;5053093;28;20519;-70
2021/11/27 07:29:23;;;;;;;7.35;4.15;;;;;;;0.79;100.00;94878.63;5044789;28;20136;-72
2021/11/27 07:31:51;;;;;;;7.63;4.18;;;;;;;0.89;100.00;94884.97;5052625;28;20135;-71
2021/11/27 07:34:18;;;;;;;11.23;7.00;;;;;;;0.80;100.00;94888.78;5053095;28;20045;-70
2021/11/27 07:36:45;;;;;;;17.33;8.27;;;;;;;0.77;100.00;94888.09;5042634;28;20140;-70
2021/11/27 07:39:13;;;;;;;8.77;5.38;;;;;;;0.83;100.00;94888.63;5049344;28;20054;-71
2021/11/27 07:41:41;;;;;;;11.13;6.88;;;;;;;0.70;100.00;94896.94;5037363;28;20107;-71
2021/11/27 07:44:08;;;;;;;8.55;5.20;;;;;;;0.78;100.00;94897.41;5045892;28;20087;-71
2021/11/27 07:46:35;;;;;;;8.25;4.80;;;;;;;0.74;100.00;94904.38;5054543;28;20122;-71
2021/11/27 07:49:03;;;;;;;8.63;5.65;;;;;;;0.77;100.00;94900.84;5045429;28;20139;-71
2021/11/27 07:51:31;;;;;;;14.73;8.18;;;;;;;0.76;100.00;94896.66;5047445;28;20509;-71
2021/11/27 07:53:58;;;;;;;12.65;7.18;;;;;;;0.82;100.00;94902.31;5061677;28;20504;-71
2021/11/27 07:56:26;;;;;;;7.75;5.22;;;;;;;0.81;100.00;94908.28;5042616;28;20135;-70
2021/11/27 07:58:54;;;;;;;9.75;4.93;;;;;;;0.99;100.00;94904.03;5047913;28;20045;-70
2021/11/27 08:01:21;;;;;;;8.35;5.90;;;;;;;0.88;100.00;94913.94;5049144;28;20432;-70
2021/11/27 08:03:49;;;;;;;9.80;6.57;;;;;;;0.79;100.00;94919.47;5051071;28;20045;-71
2021/11/27 08:06:16;;;;;;;13.10;7.13;;;;;;;0.82;100.00;94930.41;5061177;28;20540;-71
2021/11/27 08:08:43;;;;;;;9.77;6.35;;;;;;;0.91;100.00;94930.84;5051435;28;20144;-71
2021/11/27 08:11:11;;;;;;;13.18;7.28;;;;;;;0.86;100.00;94938.72;5044837;28;20528;-71
2021/11/27 08:13:42;;;;;;;11.25;6.38;;;;;;;1.04;100.00;94942.97;5041671;28;20120;-70
2021/11/27 08:16:10;;;;;;;9.13;5.72;;;;;;;1.03;100.00;94945.59;5049547;28;20072;-69
2021/11/27 08:18:37;;;;;;;8.15;5.72;;;;;;;1.04;100.00;94942.97;5041813;28;20152;-71
2021/11/27 08:21:04;;;;;;;8.15;5.43;;;;;;;0.94;100.00;94939.19;5052413;28;20418;-69
2021/11/27 08:23:48;;;;;;;10.57;5.90;;;;;;;1.01;100.00;94948.22;5053644;28;20049;-71
2021/11/27 08:26:15;;;;;;;9.70;6.60;;;;;;;1.13;100.00;94946.00;5038131;28;20072;-70
2021/11/27 08:28:43;;;;;;;12.63;7.65;;;;;;;1.01;100.00;94955.88;5044872;28;20114;-71
2021/11/27 08:31:10;;;;;;;11.40;6.88;;;;;;;1.08;100.00;94960.72;5054086;28;20515;-71
2021/11/27 08:33:38;;;;;;;11.07;6.97;;;;;;;1.14;100.00;94958.69;5042872;28;20354;-71
2021/11/27 08:36:05;;;;;;;8.38;5.20;;;;;;;1.25;100.00;94956.47;5026382;28;20136;-70
2021/11/27 08:38:32;;;;;;;14.68;5.45;;;;;;;1.29;100.00;94964.78;5036255;28;20528;-70
2021/11/27 08:41:00;;;;;;;9.98;6.18;;;;;;;1.32;100.00;94972.31;5064266;28;20052;-70
2021/11/27 08:43:28;;;;;;;8.95;6.07;;;;;;;1.37;100.00;94979.75;5060580;28;20048;-70
2021/11/27 08:45:56;;;;;;;9.50;5.80;;;;;;;1.33;100.00;94973.97;5048168;28;20052;-70
2021/11/27 08:48:23;;;;;;;9.57;5.88;;;;;;;1.41;100.00;94965.94;5051754;28;20591;-70
2021/11/27 08:50:51;;;;;;;10.63;6.30;;;;;;;1.31;100.00;94970.66;5045945;28;20151;-71
2021/11/27 08:53:18;;;;;;;10.32;6.57;;;;;;;1.39;100.00;94985.63;5042986;28;20057;-70
2021/11/27 08:55:45;;;;;;;12.27;6.20;;;;;;;1.32;100.00;94989.38;5027808;28;20606;-70
2021/11/27 08:58:13;;;;;;;8.85;6.00;;;;;;;1.39;100.00;94986.47;5032983;28;20044;-71
2021/11/27 09:00:41;;;;;;;10.32;5.13;;;;;;;1.39;100.00;94988.19;5045933;28;20131;-70
2021/11/27 09:03:09;;;;;;;9.30;5.32;;;;;;;1.37;100.00;94993.38;5047356;28;20096;-71
2021/11/27 09:05:36;;;;;;;8.32;5.97;;;;;;;1.40;100.00;94988.09;5041386;28;20223;-71
2021/11/27 09:08:04;;;;;;;12.63;8.10;;;;;;;1.39;100.00;94988.19;5026951;28;20085;-70
2021/11/27 09:10:31;;;;;;;15.57;10.68;;;;;;;1.34;100.00;95000.34;5028141;28;20418;-70
2021/11/27 09:12:59;;;;;;;15.15;8.25;;;;;;;1.36;100.00;94993.44;5027264;28;20057;-70
2021/11/27 09:15:27;;;;;;;12.93;7.38;;;;;;;1.58;100.00;94991.50;5027124;28;20852;-70
2021/11/27 09:17:55;;;;;;;13.80;9.07;;;;;;;1.54;100.00;94999.41;5045839;28;20080;-70
2021/11/27 09:20:23;;;;;;;18.20;11.02;;;;;;;1.52;100.00;94996.91;5045047;28;20057;-71
2021/11/27 09:22:50;;;;;;;13.20;8.50;;;;;;;1.67;100.00;94997.91;5029795;28;20084;-71
2021/11/27 09:25:17;;;;;;;14.65;9.60;;;;;;;1.49;100.00;95007.28;5040298;28;20082;-71
2021/11/27 09:27:45;;;;;;;16.30;9.77;;;;;;;1.29;100.00;95018.47;5027089;28;20091;-70
2021/11/27 09:30:13;;;;;;;12.75;9.10;;;;;;;1.30;100.00;95022.69;5027706;28;20081;-71
2021/11/27 09:32:40;;;;;;;12.45;9.32;;;;;;;1.42;100.00;95018.72;5035857;28;20049;-70
2021/11/27 09:35:08;;;;;;;14.30;7.85;;;;;;;1.33;100.00;95024.25;5027754;28;20156;-71
2021/11/27 09:37:36;;;;;;;13.23;8.38;;;;;;;1.36;100.00;95027.50;5035579;28;20485;-71
2021/11/27 09:40:06;;;;;;;13.80;9.35;;;;;;;1.45;100.00;95027.06;5041635;28;20478;-71
2021/11/27 09:42:34;;;;;;;17.13;9.80;;;;;;;1.61;100.00;95034.81;5036556;28;20132;-71
2021/11/27 09:45:03;;;;;;;11.75;8.48;;;;;;;1.42;100.00;95041.72;5021728;28;20415;-71
2021/11/27 09:47:32;;;;;;;13.38;8.95;;;;;;;1.53;100.00;95043.75;5026416;28;20073;-70
2021/11/27 09:50:03;;;;;;;12.60;8.25;;;;;;;1.52;100.00;95048.03;5025276;28;20091;-70
2021/11/27 09:52:30;;;;;;;12.75;8.82;;;;;;;1.55;100.00;95055.59;5025441;28;20141;-71
2021/11/27 09:54:58;;;;;;;12.82;7.63;;;;;;;1.71;100.00;95047.16;5032274;28;20119;-71
2021/11/27 09:57:26;;;;;;;14.38;8.57;;;;;;;2.01;100.00;95044.84;5031971;28;20137;-71
2021/11/27 09:59:53;;;;;;;12.60;7.65;;;;;;;2.23;100.00;95052.28;5038038;28;20064;-71
2021/11/27 10:02:24;;;;;;;14.07;9.27;;;;;;;1.79;100.00;95056.13;5041049;28;20095;-71
2021/11/27 10:05:13;;;;;;;12.57;8.60;;;;;;;1.70;100.00;95061.69;5035334;28;20060;-70
2021/11/27 10:07:42;;;;;;;12.77;8.25;;;;;;;1.78;100.00;95066.41;5035498;28;20523;-71
2021/11/27 10:10:11;;;;;;;12.38;8.38;;;;;;;1.70;100.00;95064.25;5046021;28;20060;-71
2021/11/27 10:12:42;;;;;;;14.20;7.53;;;;;;;1.80;100.00;95059.50;5034729;28;20060;-72
2021/11/27 10:15:10;;;;;;;14.43;6.10;;;;;;;1.84;100.00;95066.13;5034489;28;20258;-73
2021/11/27 10:17:38;;;;;;;12.40;7.50;;;;;;;1.79;100.00;95062.97;5047405;28;20114;-72
2021/11/27 10:20:07;;;;;;;13.38;9.00;;;;;;;1.86;100.00;95072.00;5042201;28;20165;-72
2021/11/27 10:22:37;;;;;;;10.25;6.95;;;;;;;1.90;100.00;95067.56;5043901;28;20067;-71
2021/11/27 10:25:45;;;;;;;9.90;6.40;;;;;;;2.18;100.00;95061.91;5043085;28;20107;-71
2021/11/27 10:28:17;;;;;;;11.85;6.65;;;;;;;1.84;100.00;95063.56;5049740;28;20136;-72
2021/11/27 10:30:51;;;;;;;9.27;5.57;;;;;;;2.02;100.00;95062.66;5032864;28;20144;-72
2021/11/27 10:33:19;;;;;;;13.63;6.75;;;;;;;1.76;100.00;95081.03;5033689;28;20219;-72
2021/11/27 10:35:51;;;;;;;14.98;7.85;;;;;;;1.64;100.00;95082.41;5027090;28;20053;-72
2021/11/27 10:38:19;;;;;;;9.95;6.22;;;;;;;1.78;100.00;95074.94;5033031;28;20151;-71
2021/11/27 10:40:58;;;;;;;8.10;4.72;;;;;;;1.73;100.00;95081.97;5043343;28;20132;-72
2021/11/27 10:43:26;;;;;;;17.88;8.10;;;;;;;1.84;100.00;95084.03;5047696;28;20119;-71
2021/11/27 10:46:25;;;;;;;11.00;5.68;;;;;;;2.03;100.00;95078.84;5029894;28;20061;-72
2021/11/27 10:48:52;;;;;;;19.48;9.93;;;;;;;1.95;100.00;95083.53;5029637;28;20057;-72
2021/11/27 10:51:21;;;;;;;13.30;7.95;;;;;;;2.19;100.00;95082.31;5034183;28;20649;-72
2021/11/27 10:53:55;;;;;;;10.68;5.75;;;;;;;2.24;100.00;95090.59;5038708;28;20060;-72
2021/11/27 10:56:38;;;;;;;12.73;5.30;;;;;;;2.22;100.00;95096.69;5043081;28;20426;-72
2021/11/27 10:59:06;;;;;;;7.97;4.35;;;;;;;2.19;100.00;95105.34;5048002;28;20135;-71
2021/11/27 11:02:02;;;;;;;10.43;4.93;;;;;;;1.99;100.00;95100.38;5036029;28;20422;-71
2021/11/27 11:04:32;;;;;;;10.40;6.32;;;;;;;1.99;100.00;95103.75;5033219;28;20502;-71
2021/11/27 11:07:17;;;;;;;6.10;4.63;;;;;;;1.90;100.00;95099.09;5050169;28;20141;-72
2021/11/27 11:10:12;;;;;;;9.07;4.22;;;;;;;1.99;100.00;95113.19;5041874;28;20049;-72
2021/11/27 11:12:48;;;;;;;9.25;4.10;;;;;;;2.11;100.00;95115.13;5029901;28;20145;-72
2021/11/27 11:15:24;;;;;;;7.47;4.53;;;;;;;1.88;100.00;95113.69;5030124;28;20250;-72
2021/11/27 11:18:09;;;;;;;8.75;5.13;;;;;;;2.27;100.00;95120.31;5032575;28;20088;-71
2021/11/27 11:20:43;;;;;;;9.40;5.75;;;;;;;1.90;100.00;95124.66;5035605;28;20485;-72
2021/11/27 11:23:18;;;;;;;11.57;5.57;;;;;;;2.00;100.00;95125.06;5046768;28;20084;-72
2021/11/27 11:26:21;;;;;;;14.82;8.18;;;;;;;1.77;100.00;95126.16;5046794;28;20191;-71
2021/11/27 11:28:57;;;;;;;13.10;7.55;;;;;;;1.75;100.00;95128.78;4974417;28;20133;-71
2021/11/27 11:31:32;;;;;;;12.70;6.25;;;;;;;1.75;100.00;95133.88;5035109;28;20132;-72
2021/11/27 11:34:05;;;;;;;8.68;5.22;;;;;;;1.74;100.00;95141.66;5040690;28;20095;-72
2021/11/27 11:36:49;;;;;;;10.93;5.53;;;;;;;1.72;100.00;95140.91;5037738;28;20046;-71
2021/11/27 11:39:16;;;;;;;9.25;5.85;;;;;;;1.77;100.00;95142.31;5045335;28;20066;-73
2021/11/27 11:41:44;;;;;;;12.05;6.70;;;;;;;1.81;100.00;95135.34;5043719;28;20049;-71